Terminal Aerodrome Forecast
Issued by NWS

Home | Current Version | Previous Version | Text Only | Print | Product List | Glossary Off
Versions: 1 2 3 4 5 6 7 8 9 10 11 12 13

000
FTUS44 KTSA 310500
TAFMLC
TAF
KMLC 310520Z 3106/0106 20005KT P6SM BKN250
     FM310800 18004KT 4SM BR BKN015
     FM311500 18007KT P6SM BKN015
     FM311700 18007KT P6SM BKN250
     FM010300 VRB04KT P6SM VCTS SCT050CB BKN100=

USA.gov is the U.S. government's official web portal to all federal, state and local government web resources and services.